sensor_id;sensor_type;location;lat;lon;timestamp;P1;durP1;ratioP1;P2;durP2;ratioP2
36629;SDS011;36256;42.154;23.002;2022-08-11T00:18:17;7.88;;;5.50;;
36629;SDS011;36256;42.154;23.002;2022-08-11T00:20:44;6.45;;;5.63;;
36629;SDS011;36256;42.154;23.002;2022-08-11T00:23:12;6.65;;;5.50;;
36629;SDS011;36256;42.154;23.002;2022-08-11T00:25:46;6.20;;;4.82;;
36629;SDS011;36256;42.154;23.002;2022-08-11T00:28:28;7.28;;;5.53;;
36629;SDS011;36256;42.154;23.002;2022-08-11T00:31:03;8.30;;;5.50;;
36629;SDS011;36256;42.154;23.002;2022-08-11T00:33:33;9.80;;;5.38;;
36629;SDS011;36256;42.154;23.002;2022-08-11T00:36:11;5.88;;;5.28;;
36629;SDS011;36256;42.154;23.002;2022-08-11T00:38:41;6.38;;;5.30;;
36629;SDS011;36256;42.154;23.002;2022-08-11T00:41:22;9.70;;;5.40;;
36629;SDS011;36256;42.154;23.002;2022-08-11T00:44:13;7.55;;;5.13;;
36629;SDS011;36256;42.154;23.002;2022-08-11T00:49:45;8.32;;;5.55;;
36629;SDS011;36256;42.154;23.002;2022-08-11T00:55:10;8.35;;;5.10;;
36629;SDS011;36256;42.154;23.002;2022-08-11T01:09:11;6.00;;;5.40;;
36629;SDS011;36256;42.154;23.002;2022-08-11T01:40:41;6.25;;;5.20;;
36629;SDS011;36256;42.154;23.002;2022-08-11T01:46:42;6.25;;;5.38;;
36629;SDS011;36256;42.154;23.002;2022-08-11T01:49:22;8.43;;;5.22;;
36629;SDS011;36256;42.154;23.002;2022-08-11T01:52:24;5.65;;;5.15;;
36629;SDS011;36256;42.154;23.002;2022-08-11T01:55:17;7.28;;;5.60;;
36629;SDS011;36256;42.154;23.002;2022-08-11T02:00:55;6.95;;;5.05;;
36629;SDS011;36256;42.154;23.002;2022-08-11T02:03:38;6.40;;;5.05;;
36629;SDS011;36256;42.154;23.002;2022-08-11T02:12:19;7.80;;;4.93;;
36629;SDS011;36256;42.154;23.002;2022-08-11T02:26:41;10.50;;;5.88;;
36629;SDS011;36256;42.154;23.002;2022-08-11T02:29:14;6.63;;;5.25;;
36629;SDS011;36256;42.154;23.002;2022-08-11T02:37:44;8.68;;;5.40;;
36629;SDS011;36256;42.154;23.002;2022-08-11T02:51:31;8.48;;;7.15;;
36629;SDS011;36256;42.154;23.002;2022-08-11T02:54:10;7.85;;;6.88;;
36629;SDS011;36256;42.154;23.002;2022-08-11T03:02:02;8.23;;;6.65;;
36629;SDS011;36256;42.154;23.002;2022-08-11T03:13:31;8.45;;;6.50;;
36629;SDS011;36256;42.154;23.002;2022-08-11T03:16:24;11.18;;;6.22;;
36629;SDS011;36256;42.154;23.002;2022-08-11T03:21:40;7.60;;;6.35;;
36629;SDS011;36256;42.154;23.002;2022-08-11T03:27:08;7.95;;;6.57;;
36629;SDS011;36256;42.154;23.002;2022-08-11T03:29:50;8.93;;;7.07;;
36629;SDS011;36256;42.154;23.002;2022-08-11T03:32:36;10.98;;;7.20;;
36629;SDS011;36256;42.154;23.002;2022-08-11T03:35:37;8.05;;;6.88;;
36629;SDS011;36256;42.154;23.002;2022-08-11T03:38:10;8.30;;;7.30;;
36629;SDS011;36256;42.154;23.002;2022-08-11T03:52:27;8.00;;;6.28;;
36629;SDS011;36256;42.154;23.002;2022-08-11T03:55:18;6.90;;;6.20;;
36629;SDS011;36256;42.154;23.002;2022-08-11T04:23:06;8.25;;;6.40;;
36629;SDS011;36256;42.154;23.002;2022-08-11T04:32:33;7.38;;;6.32;;
36629;SDS011;36256;42.154;23.002;2022-08-11T04:38:04;12.32;;;7.22;;
36629;SDS011;36256;42.154;23.002;2022-08-11T04:48:57;9.52;;;7.78;;
36629;SDS011;36256;42.154;23.002;2022-08-11T04:55:25;10.63;;;8.40;;
36629;SDS011;36256;42.154;23.002;2022-08-11T05:07:27;12.95;;;8.90;;
36629;SDS011;36256;42.154;23.002;2022-08-11T05:13:23;10.23;;;8.52;;
36629;SDS011;36256;42.154;23.002;2022-08-11T05:16:11;9.52;;;8.38;;
36629;SDS011;36256;42.154;23.002;2022-08-11T05:18:59;10.07;;;8.00;;
36629;SDS011;36256;42.154;23.002;2022-08-11T05:21:53;11.05;;;7.68;;
36629;SDS011;36256;42.154;23.002;2022-08-11T05:24:42;9.65;;;7.25;;
36629;SDS011;36256;42.154;23.002;2022-08-11T05:27:31;10.50;;;7.43;;
36629;SDS011;36256;42.154;23.002;2022-08-11T05:30:24;10.27;;;7.20;;
36629;SDS011;36256;42.154;23.002;2022-08-11T05:33:19;9.40;;;7.35;;
36629;SDS011;36256;42.154;23.002;2022-08-11T05:36:14;9.10;;;7.30;;
36629;SDS011;36256;42.154;23.002;2022-08-11T05:38:53;9.93;;;7.28;;
36629;SDS011;36256;42.154;23.002;2022-08-11T05:41:43;8.55;;;7.70;;
36629;SDS011;36256;42.154;23.002;2022-08-11T05:44:28;8.77;;;7.70;;
36629;SDS011;36256;42.154;23.002;2022-08-11T05:47:23;10.20;;;7.63;;
36629;SDS011;36256;42.154;23.002;2022-08-11T05:50:10;9.60;;;7.60;;
36629;SDS011;36256;42.154;23.002;2022-08-11T05:52:58;10.77;;;7.63;;
36629;SDS011;36256;42.154;23.002;2022-08-11T05:55:45;8.70;;;7.20;;
36629;SDS011;36256;42.154;23.002;2022-08-11T05:58:36;15.63;;;7.47;;
36629;SDS011;36256;42.154;23.002;2022-08-11T06:01:08;11.32;;;7.25;;
36629;SDS011;36256;42.154;23.002;2022-08-11T06:03:37;13.77;;;6.90;;
36629;SDS011;36256;42.154;23.002;2022-08-11T06:06:26;11.05;;;6.78;;
36629;SDS011;36256;42.154;23.002;2022-08-11T06:08:54;7.78;;;6.40;;
36629;SDS011;36256;42.154;23.002;2022-08-11T06:11:23;9.02;;;6.53;;
36629;SDS011;36256;42.154;23.002;2022-08-11T06:14:10;8.82;;;6.63;;
36629;SDS011;36256;42.154;23.002;2022-08-11T06:16:38;7.03;;;6.35;;
36629;SDS011;36256;42.154;23.002;2022-08-11T06:19:07;8.18;;;6.57;;
36629;SDS011;36256;42.154;23.002;2022-08-11T06:21:34;8.15;;;6.25;;
36629;SDS011;36256;42.154;23.002;2022-08-11T06:24:12;6.78;;;5.70;;
36629;SDS011;36256;42.154;23.002;2022-08-11T06:26:40;7.38;;;5.55;;
36629;SDS011;36256;42.154;23.002;2022-08-11T06:29:36;7.70;;;5.85;;
36629;SDS011;36256;42.154;23.002;2022-08-11T06:32:13;8.25;;;5.55;;
36629;SDS011;36256;42.154;23.002;2022-08-11T06:34:52;7.72;;;6.00;;
36629;SDS011;36256;42.154;23.002;2022-08-11T06:37:41;5.90;;;5.30;;
36629;SDS011;36256;42.154;23.002;2022-08-11T06:40:12;6.55;;;4.90;;
36629;SDS011;36256;42.154;23.002;2022-08-11T06:42:49;6.55;;;4.82;;
36629;SDS011;36256;42.154;23.002;2022-08-11T06:47:50;6.65;;;4.68;;
36629;SDS011;36256;42.154;23.002;2022-08-11T06:50:18;7.28;;;5.18;;
36629;SDS011;36256;42.154;23.002;2022-08-11T06:53:05;7.47;;;4.80;;
36629;SDS011;36256;42.154;23.002;2022-08-11T06:55:38;7.97;;;4.75;;
36629;SDS011;36256;42.154;23.002;2022-08-11T06:58:29;6.75;;;4.43;;
36629;SDS011;36256;42.154;23.002;2022-08-11T07:04:26;6.85;;;4.40;;
36629;SDS011;36256;42.154;23.002;2022-08-11T07:07:00;6.10;;;4.50;;
36629;SDS011;36256;42.154;23.002;2022-08-11T07:19:54;4.80;;;4.25;;
36629;SDS011;36256;42.154;23.002;2022-08-11T07:22:42;5.47;;;3.80;;
36629;SDS011;36256;42.154;23.002;2022-08-11T07:25:35;4.55;;;4.05;;
36629;SDS011;36256;42.154;23.002;2022-08-11T07:28:25;6.07;;;4.10;;
36629;SDS011;36256;42.154;23.002;2022-08-11T07:31:16;5.47;;;4.03;;
36629;SDS011;36256;42.154;23.002;2022-08-11T07:33:50;4.57;;;3.85;;
36629;SDS011;36256;42.154;23.002;2022-08-11T07:36:33;4.82;;;3.97;;
36629;SDS011;36256;42.154;23.002;2022-08-11T07:39:14;5.05;;;3.83;;
36629;SDS011;36256;42.154;23.002;2022-08-11T07:41:46;5.25;;;4.22;;
36629;SDS011;36256;42.154;23.002;2022-08-11T07:44:16;7.55;;;4.20;;
36629;SDS011;36256;42.154;23.002;2022-08-11T07:46:44;10.52;;;4.90;;
36629;SDS011;36256;42.154;23.002;2022-08-11T07:49:32;8.45;;;4.15;;
36629;SDS011;36256;42.154;23.002;2022-08-11T07:52:20;4.95;;;4.20;;
36629;SDS011;36256;42.154;23.002;2022-08-11T07:55:31;6.40;;;3.92;;
36629;SDS011;36256;42.154;23.002;2022-08-11T07:58:11;6.43;;;4.30;;
36629;SDS011;36256;42.154;23.002;2022-08-11T08:01:09;4.47;;;4.05;;
36629;SDS011;36256;42.154;23.002;2022-08-11T08:06:42;4.57;;;4.05;;
36629;SDS011;36256;42.154;23.002;2022-08-11T08:09:28;4.15;;;3.85;;
36629;SDS011;36256;42.154;23.002;2022-08-11T08:12:21;4.80;;;3.85;;
36629;SDS011;36256;42.154;23.002;2022-08-11T08:15:09;5.22;;;3.90;;
36629;SDS011;36256;42.154;23.002;2022-08-11T08:17:57;6.03;;;4.05;;
36629;SDS011;36256;42.154;23.002;2022-08-11T08:20:46;6.03;;;3.90;;
36629;SDS011;36256;42.154;23.002;2022-08-11T08:23:18;4.53;;;3.72;;
36629;SDS011;36256;42.154;23.002;2022-08-11T08:26:02;6.30;;;4.22;;
36629;SDS011;36256;42.154;23.002;2022-08-11T08:28:52;5.05;;;4.05;;
36629;SDS011;36256;42.154;23.002;2022-08-11T08:31:20;5.30;;;4.30;;
36629;SDS011;36256;42.154;23.002;2022-08-11T08:33:47;5.00;;;4.07;;
36629;SDS011;36256;42.154;23.002;2022-08-11T08:36:15;5.90;;;4.22;;
36629;SDS011;36256;42.154;23.002;2022-08-11T08:38:47;7.20;;;3.85;;
36629;SDS011;36256;42.154;23.002;2022-08-11T08:41:18;12.38;;;4.57;;
36629;SDS011;36256;42.154;23.002;2022-08-11T08:43:49;4.80;;;3.97;;
36629;SDS011;36256;42.154;23.002;2022-08-11T08:46:24;4.18;;;3.78;;
36629;SDS011;36256;42.154;23.002;2022-08-11T08:48:59;6.43;;;3.63;;
36629;SDS011;36256;42.154;23.002;2022-08-11T08:51:27;4.30;;;3.90;;
36629;SDS011;36256;42.154;23.002;2022-08-11T08:54:22;4.72;;;3.75;;
36629;SDS011;36256;42.154;23.002;2022-08-11T08:56:55;6.18;;;3.92;;
36629;SDS011;36256;42.154;23.002;2022-08-11T08:59:23;5.97;;;4.43;;
36629;SDS011;36256;42.154;23.002;2022-08-11T09:02:12;4.50;;;3.83;;
36629;SDS011;36256;42.154;23.002;2022-08-11T09:04:39;3.78;;;3.38;;
36629;SDS011;36256;42.154;23.002;2022-08-11T09:07:11;5.22;;;3.40;;
36629;SDS011;36256;42.154;23.002;2022-08-11T09:09:44;5.18;;;3.80;;
36629;SDS011;36256;42.154;23.002;2022-08-11T09:12:14;3.65;;;3.17;;
36629;SDS011;36256;42.154;23.002;2022-08-11T09:15:03;4.82;;;3.33;;
36629;SDS011;36256;42.154;23.002;2022-08-11T09:20:12;3.90;;;3.00;;
36629;SDS011;36256;42.154;23.002;2022-08-11T09:22:43;5.30;;;3.38;;
36629;SDS011;36256;42.154;23.002;2022-08-11T09:25:58;3.80;;;3.17;;
36629;SDS011;36256;42.154;23.002;2022-08-11T09:28:45;4.72;;;3.30;;
36629;SDS011;36256;42.154;23.002;2022-08-11T09:31:13;3.75;;;2.80;;
36629;SDS011;36256;42.154;23.002;2022-08-11T09:33:41;6.68;;;3.28;;
36629;SDS011;36256;42.154;23.002;2022-08-11T09:36:11;3.55;;;3.22;;
36629;SDS011;36256;42.154;23.002;2022-08-11T09:38:57;4.60;;;2.90;;
36629;SDS011;36256;42.154;23.002;2022-08-11T09:41:45;6.55;;;3.47;;
36629;SDS011;36256;42.154;23.002;2022-08-11T09:44:32;3.70;;;3.40;;
36629;SDS011;36256;42.154;23.002;2022-08-11T09:47:19;3.47;;;3.17;;
36629;SDS011;36256;42.154;23.002;2022-08-11T09:49:55;3.95;;;3.22;;
36629;SDS011;36256;42.154;23.002;2022-08-11T09:52:31;4.25;;;3.60;;
36629;SDS011;36256;42.154;23.002;2022-08-11T09:55:01;5.78;;;3.25;;
36629;SDS011;36256;42.154;23.002;2022-08-11T09:57:40;4.50;;;3.40;;
36629;SDS011;36256;42.154;23.002;2022-08-11T10:00:30;4.95;;;3.30;;
36629;SDS011;36256;42.154;23.002;2022-08-11T10:03:06;4.18;;;3.10;;
36629;SDS011;36256;42.154;23.002;2022-08-11T10:05:37;5.00;;;3.50;;
36629;SDS011;36256;42.154;23.002;2022-08-11T10:08:27;3.65;;;3.10;;
36629;SDS011;36256;42.154;23.002;2022-08-11T10:10:55;8.15;;;3.30;;
36629;SDS011;36256;42.154;23.002;2022-08-11T10:13:25;3.65;;;3.20;;
36629;SDS011;36256;42.154;23.002;2022-08-11T10:16:19;4.13;;;3.20;;
36629;SDS011;36256;42.154;23.002;2022-08-11T10:18:51;4.15;;;2.60;;
36629;SDS011;36256;42.154;23.002;2022-08-11T10:21:39;5.07;;;3.45;;
36629;SDS011;36256;42.154;23.002;2022-08-11T10:24:07;5.22;;;3.05;;
36629;SDS011;36256;42.154;23.002;2022-08-11T10:26:54;6.90;;;3.70;;
36629;SDS011;36256;42.154;23.002;2022-08-11T10:32:20;5.05;;;3.70;;
36629;SDS011;36256;42.154;23.002;2022-08-11T10:35:24;3.83;;;3.45;;
36629;SDS011;36256;42.154;23.002;2022-08-11T10:37:53;6.35;;;3.40;;
36629;SDS011;36256;42.154;23.002;2022-08-11T10:40:35;5.82;;;3.80;;
36629;SDS011;36256;42.154;23.002;2022-08-11T10:43:04;5.53;;;3.28;;
36629;SDS011;36256;42.154;23.002;2022-08-11T10:45:36;3.85;;;3.50;;
36629;SDS011;36256;42.154;23.002;2022-08-11T10:48:24;4.13;;;3.72;;
36629;SDS011;36256;42.154;23.002;2022-08-11T10:50:53;4.40;;;4.00;;
36629;SDS011;36256;42.154;23.002;2022-08-11T10:53:45;3.83;;;3.53;;
36629;SDS011;36256;42.154;23.002;2022-08-11T10:56:38;4.43;;;4.03;;
36629;SDS011;36256;42.154;23.002;2022-08-11T10:59:25;9.23;;;4.43;;
36629;SDS011;36256;42.154;23.002;2022-08-11T11:01:53;6.47;;;3.88;;
36629;SDS011;36256;42.154;23.002;2022-08-11T11:04:26;4.32;;;3.65;;
36629;SDS011;36256;42.154;23.002;2022-08-11T11:07:04;4.30;;;3.83;;
36629;SDS011;36256;42.154;23.002;2022-08-11T11:09:41;3.88;;;3.40;;
36629;SDS011;36256;42.154;23.002;2022-08-11T11:12:22;3.85;;;3.53;;
36629;SDS011;36256;42.154;23.002;2022-08-11T11:15:11;4.72;;;3.67;;
36629;SDS011;36256;42.154;23.002;2022-08-11T11:18:08;3.60;;;3.30;;
36629;SDS011;36256;42.154;23.002;2022-08-11T11:20:42;3.95;;;3.53;;
36629;SDS011;36256;42.154;23.002;2022-08-11T11:23:17;4.68;;;4.13;;
36629;SDS011;36256;42.154;23.002;2022-08-11T11:29:26;3.60;;;3.30;;
36629;SDS011;36256;42.154;23.002;2022-08-11T11:32:23;4.75;;;3.47;;
36629;SDS011;36256;42.154;23.002;2022-08-11T11:37:40;4.28;;;3.28;;
36629;SDS011;36256;42.154;23.002;2022-08-11T11:40:29;3.60;;;3.00;;
36629;SDS011;36256;42.154;23.002;2022-08-11T11:42:57;3.38;;;3.08;;
36629;SDS011;36256;42.154;23.002;2022-08-11T11:45:25;3.55;;;3.25;;
36629;SDS011;36256;42.154;23.002;2022-08-11T11:52:51;3.20;;;2.97;;
36629;SDS011;36256;42.154;23.002;2022-08-11T11:55:21;4.45;;;3.33;;
36629;SDS011;36256;42.154;23.002;2022-08-11T11:57:49;6.03;;;3.05;;
36629;SDS011;36256;42.154;23.002;2022-08-11T12:00:43;4.88;;;2.85;;
36629;SDS011;36256;42.154;23.002;2022-08-11T12:03:29;4.43;;;2.80;;
36629;SDS011;36256;42.154;23.002;2022-08-11T12:05:57;10.70;;;3.28;;
36629;SDS011;36256;42.154;23.002;2022-08-11T12:08:24;5.85;;;3.00;;
36629;SDS011;36256;42.154;23.002;2022-08-11T12:14:01;2.60;;;2.40;;
36629;SDS011;36256;42.154;23.002;2022-08-11T12:16:36;3.65;;;2.50;;
36629;SDS011;36256;42.154;23.002;2022-08-11T12:19:11;6.07;;;2.70;;
36629;SDS011;36256;42.154;23.002;2022-08-11T12:21:39;2.90;;;2.45;;
36629;SDS011;36256;42.154;23.002;2022-08-11T12:24:26;3.85;;;2.70;;
36629;SDS011;36256;42.154;23.002;2022-08-11T12:27:13;2.80;;;2.50;;
36629;SDS011;36256;42.154;23.002;2022-08-11T12:29:51;2.97;;;2.35;;
36629;SDS011;36256;42.154;23.002;2022-08-11T12:32:31;2.78;;;2.05;;
36629;SDS011;36256;42.154;23.002;2022-08-11T12:35:00;2.75;;;2.50;;
36629;SDS011;36256;42.154;23.002;2022-08-11T12:37:31;4.57;;;2.50;;
36629;SDS011;36256;42.154;23.002;2022-08-11T12:40:04;2.90;;;2.60;;
36629;SDS011;36256;42.154;23.002;2022-08-11T12:43:14;3.78;;;2.40;;
36629;SDS011;36256;42.154;23.002;2022-08-11T12:46:08;2.50;;;2.30;;
36629;SDS011;36256;42.154;23.002;2022-08-11T12:48:41;2.67;;;2.47;;
36629;SDS011;36256;42.154;23.002;2022-08-11T12:51:33;3.10;;;2.30;;
36629;SDS011;36256;42.154;23.002;2022-08-11T12:57:44;2.72;;;2.42;;
36629;SDS011;36256;42.154;23.002;2022-08-11T13:00:31;2.72;;;2.42;;
36629;SDS011;36256;42.154;23.002;2022-08-11T13:08:35;2.70;;;2.40;;
36629;SDS011;36256;42.154;23.002;2022-08-11T13:11:03;4.97;;;2.55;;
36629;SDS011;36256;42.154;23.002;2022-08-11T13:13:48;2.53;;;2.33;;
36629;SDS011;36256;42.154;23.002;2022-08-11T13:16:26;5.00;;;2.38;;
36629;SDS011;36256;42.154;23.002;2022-08-11T13:18:58;3.72;;;2.55;;
36629;SDS011;36256;42.154;23.002;2022-08-11T13:21:26;4.07;;;2.60;;
36629;SDS011;36256;42.154;23.002;2022-08-11T13:23:54;2.92;;;2.60;;
36629;SDS011;36256;42.154;23.002;2022-08-11T13:26:31;3.45;;;2.65;;
36629;SDS011;36256;42.154;23.002;2022-08-11T13:29:14;3.88;;;2.90;;
36629;SDS011;36256;42.154;23.002;2022-08-11T13:31:43;2.60;;;2.40;;
36629;SDS011;36256;42.154;23.002;2022-08-11T13:34:11;3.05;;;2.53;;
36629;SDS011;36256;42.154;23.002;2022-08-11T13:36:38;5.75;;;2.80;;
36629;SDS011;36256;42.154;23.002;2022-08-11T13:39:05;3.40;;;2.58;;
36629;SDS011;36256;42.154;23.002;2022-08-11T13:41:33;3.22;;;2.45;;
36629;SDS011;36256;42.154;23.002;2022-08-11T13:44:08;5.95;;;2.80;;
36629;SDS011;36256;42.154;23.002;2022-08-11T13:46:41;3.95;;;2.55;;
36629;SDS011;36256;42.154;23.002;2022-08-11T13:49:09;3.78;;;2.60;;
36629;SDS011;36256;42.154;23.002;2022-08-11T13:51:37;3.20;;;2.63;;
36629;SDS011;36256;42.154;23.002;2022-08-11T13:54:06;2.63;;;2.42;;
36629;SDS011;36256;42.154;23.002;2022-08-11T13:56:35;3.10;;;2.40;;
36629;SDS011;36256;42.154;23.002;2022-08-11T13:59:06;3.55;;;2.50;;
36629;SDS011;36256;42.154;23.002;2022-08-11T14:01:37;3.40;;;2.50;;
36629;SDS011;36256;42.154;23.002;2022-08-11T14:04:29;2.80;;;2.45;;
36629;SDS011;36256;42.154;23.002;2022-08-11T14:07:02;5.00;;;2.40;;
36629;SDS011;36256;42.154;23.002;2022-08-11T14:09:34;8.90;;;2.55;;
36629;SDS011;36256;42.154;23.002;2022-08-11T14:12:05;3.33;;;2.42;;
36629;SDS011;36256;42.154;23.002;2022-08-11T14:14:58;2.90;;;2.47;;
36629;SDS011;36256;42.154;23.002;2022-08-11T14:17:34;3.03;;;2.30;;
36629;SDS011;36256;42.154;23.002;2022-08-11T14:20:15;4.30;;;2.42;;
36629;SDS011;36256;42.154;23.002;2022-08-11T14:23:03;4.57;;;2.42;;
36629;SDS011;36256;42.154;23.002;2022-08-11T14:25:31;6.43;;;2.22;;
36629;SDS011;36256;42.154;23.002;2022-08-11T14:28:18;3.38;;;2.50;;
36629;SDS011;36256;42.154;23.002;2022-08-11T14:30:59;3.38;;;2.40;;
36629;SDS011;36256;42.154;23.002;2022-08-11T14:33:29;3.33;;;2.45;;
36629;SDS011;36256;42.154;23.002;2022-08-11T14:36:17;4.40;;;2.60;;
36629;SDS011;36256;42.154;23.002;2022-08-11T14:38:46;3.90;;;2.40;;
36629;SDS011;36256;42.154;23.002;2022-08-11T14:41:14;2.90;;;2.30;;
36629;SDS011;36256;42.154;23.002;2022-08-11T14:44:01;3.40;;;2.40;;
36629;SDS011;36256;42.154;23.002;2022-08-11T14:46:47;4.97;;;2.88;;
36629;SDS011;36256;42.154;23.002;2022-08-11T14:49:50;6.38;;;3.15;;
36629;SDS011;36256;42.154;23.002;2022-08-11T14:52:37;5.03;;;2.90;;
36629;SDS011;36256;42.154;23.002;2022-08-11T14:55:08;4.93;;;3.08;;
36629;SDS011;36256;42.154;23.002;2022-08-11T14:57:55;3.63;;;2.75;;
36629;SDS011;36256;42.154;23.002;2022-08-11T15:02:50;4.57;;;2.80;;
36629;SDS011;36256;42.154;23.002;2022-08-11T15:05:42;6.63;;;3.00;;
36629;SDS011;36256;42.154;23.002;2022-08-11T15:08:33;4.18;;;2.78;;
36629;SDS011;36256;42.154;23.002;2022-08-11T15:11:22;3.60;;;2.90;;
36629;SDS011;36256;42.154;23.002;2022-08-11T15:14:12;3.22;;;2.90;;
36629;SDS011;36256;42.154;23.002;2022-08-11T15:16:40;3.30;;;3.00;;
36629;SDS011;36256;42.154;23.002;2022-08-11T15:19:28;4.43;;;3.13;;
36629;SDS011;36256;42.154;23.002;2022-08-11T15:22:05;3.40;;;3.10;;
36629;SDS011;36256;42.154;23.002;2022-08-11T15:24:53;4.75;;;3.35;;
36629;SDS011;36256;42.154;23.002;2022-08-11T15:30:07;4.90;;;3.42;;
36629;SDS011;36256;42.154;23.002;2022-08-11T15:33:00;4.53;;;3.42;;
36629;SDS011;36256;42.154;23.002;2022-08-11T15:35:48;3.55;;;3.10;;
36629;SDS011;36256;42.154;23.002;2022-08-11T15:38:34;7.18;;;3.30;;
36629;SDS011;36256;42.154;23.002;2022-08-11T15:41:07;6.55;;;3.78;;
36629;SDS011;36256;42.154;23.002;2022-08-11T15:43:55;4.47;;;3.45;;
36629;SDS011;36256;42.154;23.002;2022-08-11T15:46:44;7.30;;;3.40;;
36629;SDS011;36256;42.154;23.002;2022-08-11T15:51:56;5.10;;;3.22;;
36629;SDS011;36256;42.154;23.002;2022-08-11T15:54:29;31.17;;;5.25;;
36629;SDS011;36256;42.154;23.002;2022-08-11T15:56:59;3.30;;;3.00;;
36629;SDS011;36256;42.154;23.002;2022-08-11T15:59:28;4.25;;;3.38;;
36629;SDS011;36256;42.154;23.002;2022-08-11T16:02:16;16.55;;;4.25;;
36629;SDS011;36256;42.154;23.002;2022-08-11T16:05:09;8.10;;;3.47;;
36629;SDS011;36256;42.154;23.002;2022-08-11T16:07:59;9.88;;;3.60;;
36629;SDS011;36256;42.154;23.002;2022-08-11T16:10:28;3.53;;;3.22;;
36629;SDS011;36256;42.154;23.002;2022-08-11T16:12:59;4.32;;;3.35;;
36629;SDS011;36256;42.154;23.002;2022-08-11T16:15:34;3.40;;;3.10;;
36629;SDS011;36256;42.154;23.002;2022-08-11T16:18:24;3.65;;;3.33;;
36629;SDS011;36256;42.154;23.002;2022-08-11T16:21:06;4.60;;;3.50;;
36629;SDS011;36256;42.154;23.002;2022-08-11T16:23:56;3.83;;;3.42;;
36629;SDS011;36256;42.154;23.002;2022-08-11T16:26:25;3.95;;;3.50;;
36629;SDS011;36256;42.154;23.002;2022-08-11T16:29:14;6.93;;;3.70;;
36629;SDS011;36256;42.154;23.002;2022-08-11T16:31:43;5.82;;;3.70;;
36629;SDS011;36256;42.154;23.002;2022-08-11T16:34:31;4.13;;;3.25;;
36629;SDS011;36256;42.154;23.002;2022-08-11T16:37:18;3.70;;;3.30;;
36629;SDS011;36256;42.154;23.002;2022-08-11T16:40:07;4.20;;;3.72;;
36629;SDS011;36256;42.154;23.002;2022-08-11T16:42:35;7.63;;;3.75;;
36629;SDS011;36256;42.154;23.002;2022-08-11T16:45:35;5.35;;;3.78;;
36629;SDS011;36256;42.154;23.002;2022-08-11T16:51:06;5.95;;;3.58;;
36629;SDS011;36256;42.154;23.002;2022-08-11T16:53:35;6.25;;;3.38;;
36629;SDS011;36256;42.154;23.002;2022-08-11T16:56:30;3.83;;;3.53;;
36629;SDS011;36256;42.154;23.002;2022-08-11T16:59:01;6.63;;;3.63;;
36629;SDS011;36256;42.154;23.002;2022-08-11T17:04:42;4.93;;;3.42;;
36629;SDS011;36256;42.154;23.002;2022-08-11T17:07:38;7.25;;;3.85;;
36629;SDS011;36256;42.154;23.002;2022-08-11T17:11:01;6.13;;;3.45;;
36629;SDS011;36256;42.154;23.002;2022-08-11T17:13:48;3.70;;;3.38;;
36629;SDS011;36256;42.154;23.002;2022-08-11T17:16:20;4.97;;;3.33;;
36629;SDS011;36256;42.154;23.002;2022-08-11T17:19:06;3.88;;;3.38;;
36629;SDS011;36256;42.154;23.002;2022-08-11T17:21:40;5.43;;;3.70;;
36629;SDS011;36256;42.154;23.002;2022-08-11T17:24:28;4.15;;;3.58;;
36629;SDS011;36256;42.154;23.002;2022-08-11T17:26:57;5.90;;;3.80;;
36629;SDS011;36256;42.154;23.002;2022-08-11T17:32:30;5.47;;;3.10;;
36629;SDS011;36256;42.154;23.002;2022-08-11T17:35:25;8.88;;;3.55;;
36629;SDS011;36256;42.154;23.002;2022-08-11T17:38:14;7.75;;;3.70;;
36629;SDS011;36256;42.154;23.002;2022-08-11T17:40:44;3.45;;;3.15;;
36629;SDS011;36256;42.154;23.002;2022-08-11T17:43:48;4.55;;;3.33;;
36629;SDS011;36256;42.154;23.002;2022-08-11T17:46:35;9.32;;;3.75;;
36629;SDS011;36256;42.154;23.002;2022-08-11T17:49:29;7.15;;;3.70;;
36629;SDS011;36256;42.154;23.002;2022-08-11T17:52:03;4.05;;;3.30;;
36629;SDS011;36256;42.154;23.002;2022-08-11T17:54:50;8.43;;;3.80;;
36629;SDS011;36256;42.154;23.002;2022-08-11T17:57:39;3.90;;;3.50;;
36629;SDS011;36256;42.154;23.002;2022-08-11T18:00:25;6.65;;;3.53;;
36629;SDS011;36256;42.154;23.002;2022-08-11T18:05:38;5.50;;;3.35;;
36629;SDS011;36256;42.154;23.002;2022-08-11T18:08:09;6.15;;;3.40;;
36629;SDS011;36256;42.154;23.002;2022-08-11T18:10:57;5.22;;;3.15;;
36629;SDS011;36256;42.154;23.002;2022-08-11T18:14:05;4.13;;;3.58;;
36629;SDS011;36256;42.154;23.002;2022-08-11T18:16:52;3.63;;;3.25;;
36629;SDS011;36256;42.154;23.002;2022-08-11T18:19:38;6.60;;;3.73;;
36629;SDS011;36256;42.154;23.002;2022-08-11T18:22:28;4.13;;;3.72;;
36629;SDS011;36256;42.154;23.002;2022-08-11T18:25:20;4.13;;;3.40;;
36629;SDS011;36256;42.154;23.002;2022-08-11T18:28:11;4.88;;;3.25;;
36629;SDS011;36256;42.154;23.002;2022-08-11T18:30:59;5.10;;;3.33;;
36629;SDS011;36256;42.154;23.002;2022-08-11T18:33:50;4.88;;;3.20;;
36629;SDS011;36256;42.154;23.002;2022-08-11T18:36:38;3.67;;;3.30;;
36629;SDS011;36256;42.154;23.002;2022-08-11T18:39:26;3.90;;;3.30;;
36629;SDS011;36256;42.154;23.002;2022-08-11T18:42:21;6.32;;;3.15;;
36629;SDS011;36256;42.154;23.002;2022-08-11T18:45:09;6.00;;;3.30;;
36629;SDS011;36256;42.154;23.002;2022-08-11T18:48:12;31.40;;;6.93;;
36629;SDS011;36256;42.154;23.002;2022-08-11T18:51:02;34.58;;;7.22;;
36629;SDS011;36256;42.154;23.002;2022-08-11T18:54:03;24.75;;;5.50;;
36629;SDS011;36256;42.154;23.002;2022-08-11T18:56:51;4.85;;;3.20;;
36629;SDS011;36256;42.154;23.002;2022-08-11T18:59:39;11.63;;;4.20;;
36629;SDS011;36256;42.154;23.002;2022-08-11T19:02:27;3.90;;;3.10;;
36629;SDS011;36256;42.154;23.002;2022-08-11T19:05:16;7.75;;;3.55;;
36629;SDS011;36256;42.154;23.002;2022-08-11T19:08:24;90.82;;;8.18;;
36629;SDS011;36256;42.154;23.002;2022-08-11T19:11:14;6.80;;;3.42;;
36629;SDS011;36256;42.154;23.002;2022-08-11T19:14:09;6.82;;;3.60;;
36629;SDS011;36256;42.154;23.002;2022-08-11T19:16:57;4.88;;;3.35;;
36629;SDS011;36256;42.154;23.002;2022-08-11T19:20:05;4.32;;;3.10;;
36629;SDS011;36256;42.154;23.002;2022-08-11T19:22:53;4.43;;;3.50;;
36629;SDS011;36256;42.154;23.002;2022-08-11T19:25:41;4.85;;;3.08;;
36629;SDS011;36256;42.154;23.002;2022-08-11T19:28:28;3.58;;;2.83;;
36629;SDS011;36256;42.154;23.002;2022-08-11T19:31:15;4.63;;;3.30;;
36629;SDS011;36256;42.154;23.002;2022-08-11T19:34:07;5.22;;;3.45;;
36629;SDS011;36256;42.154;23.002;2022-08-11T19:39:39;5.32;;;2.90;;
36629;SDS011;36256;42.154;23.002;2022-08-11T19:45:13;3.10;;;2.80;;
36629;SDS011;36256;42.154;23.002;2022-08-11T19:47:59;3.55;;;2.90;;
36629;SDS011;36256;42.154;23.002;2022-08-11T19:50:57;4.57;;;2.92;;
36629;SDS011;36256;42.154;23.002;2022-08-11T19:53:43;4.60;;;3.10;;
36629;SDS011;36256;42.154;23.002;2022-08-11T19:56:29;5.93;;;2.78;;
36629;SDS011;36256;42.154;23.002;2022-08-11T19:59:17;5.30;;;3.10;;
36629;SDS011;36256;42.154;23.002;2022-08-11T20:02:04;4.10;;;3.30;;
36629;SDS011;36256;42.154;23.002;2022-08-11T20:04:49;5.85;;;3.17;;
36629;SDS011;36256;42.154;23.002;2022-08-11T20:07:35;3.88;;;2.95;;
36629;SDS011;36256;42.154;23.002;2022-08-11T20:10:21;5.43;;;3.25;;
36629;SDS011;36256;42.154;23.002;2022-08-11T20:13:09;5.28;;;3.03;;
36629;SDS011;36256;42.154;23.002;2022-08-11T20:15:57;5.50;;;2.92;;
36629;SDS011;36256;42.154;23.002;2022-08-11T20:18:45;3.50;;;2.80;;
36629;SDS011;36256;42.154;23.002;2022-08-11T20:21:33;3.88;;;2.95;;
36629;SDS011;36256;42.154;23.002;2022-08-11T20:24:21;5.03;;;3.17;;